createdAt,value
2019-05-12T00:01:00.980Z,9.10
2019-05-12T00:03:29.721Z,9.10
2019-05-12T00:05:58.425Z,9.10
2019-05-12T00:08:27.737Z,9.00
2019-05-12T00:10:58.295Z,9.00
2019-05-12T00:15:58.353Z,9.00
2019-05-12T00:18:28.464Z,9.10
2019-05-12T00:20:57.897Z,9.10
2019-05-12T00:23:28.706Z,9.10
2019-05-12T00:25:58.823Z,9.00
2019-05-12T00:28:28.438Z,8.80
2019-05-12T00:30:58.046Z,8.90
2019-05-12T00:35:58.704Z,9.00
2019-05-12T00:38:27.917Z,8.90
2019-05-12T00:40:58.330Z,8.90
2019-05-12T00:43:28.122Z,8.90
2019-05-12T00:45:58.682Z,8.90
2019-05-12T00:48:28.384Z,8.90
2019-05-12T00:50:58.368Z,8.90
2019-05-12T00:53:37.260Z,9.00
2019-05-12T00:58:27.810Z,8.90
2019-05-12T01:00:59.418Z,8.90
2019-05-12T01:03:27.938Z,9.00
2019-05-12T01:05:57.758Z,8.90
2019-05-12T01:08:28.027Z,8.80
2019-05-12T01:10:58.313Z,8.60
2019-05-12T01:13:27.942Z,8.60
2019-05-12T01:15:58.653Z,8.70
2019-05-12T01:18:28.091Z,8.80
2019-05-12T01:23:28.066Z,9.00
2019-05-12T01:25:58.486Z,9.00
2019-05-12T01:28:27.937Z,8.90
2019-05-12T01:30:58.599Z,8.90
2019-05-12T01:33:27.789Z,8.90
2019-05-12T01:35:58.690Z,9.00
2019-05-12T01:38:28.774Z,9.00
2019-05-12T01:40:58.362Z,9.00
2019-05-12T01:45:58.921Z,9.20
2019-05-12T01:48:28.779Z,9.20
2019-05-12T01:50:58.042Z,9.10
2019-05-12T01:53:28.723Z,9.10
2019-05-12T01:55:58.479Z,9.10
2019-05-12T01:58:27.858Z,9.00
2019-05-12T02:00:58.807Z,9.20
2019-05-12T02:03:28.434Z,8.90
2019-05-12T02:08:32.707Z,9.10
2019-05-12T02:11:19.207Z,9.20
2019-05-12T02:13:48.625Z,9.30
2019-05-12T02:16:18.814Z,9.30
2019-05-12T02:18:49.021Z,9.30
2019-05-12T02:21:19.177Z,9.30
2019-05-12T02:23:48.043Z,9.30
2019-05-12T02:26:18.775Z,9.40
2019-05-12T02:28:48.044Z,9.30
2019-05-12T02:33:47.220Z,9.30
2019-05-12T02:36:16.263Z,9.30
2019-05-12T02:38:45.531Z,9.40
2019-05-12T02:41:15.499Z,9.50
2019-05-12T02:43:45.656Z,9.50
2019-05-12T02:46:15.546Z,9.40
2019-05-12T02:48:45.089Z,9.10
2019-05-12T02:53:46.852Z,8.80
2019-05-12T02:56:15.204Z,8.80
2019-05-12T02:58:45.317Z,8.90
2019-05-12T03:01:15.258Z,9.10
2019-05-12T03:03:44.604Z,9.20
2019-05-12T03:06:15.210Z,9.20
2019-05-12T03:08:44.876Z,9.10
2019-05-12T03:11:14.806Z,9.00
2019-05-12T03:16:15.041Z,8.80
2019-05-12T03:18:45.013Z,8.80
2019-05-12T03:21:15.172Z,8.90
2019-05-12T03:23:44.969Z,8.90
2019-05-12T03:26:15.350Z,9.00
2019-05-12T03:28:44.770Z,8.80
2019-05-12T03:31:22.129Z,8.80
2019-05-12T03:33:52.235Z,8.90
2019-05-12T03:38:45.085Z,8.90
2019-05-12T03:41:14.817Z,9.00
2019-05-12T03:43:44.940Z,9.00
2019-05-12T03:46:15.239Z,8.80
2019-05-12T03:48:45.402Z,8.70
2019-05-12T03:51:15.415Z,8.80
2019-05-12T03:53:45.584Z,8.70
2019-05-12T03:56:15.251Z,8.70
2019-05-12T04:03:45.056Z,8.80
2019-05-12T04:06:15.466Z,8.80
2019-05-12T04:08:45.493Z,8.80
2019-05-12T04:11:14.850Z,8.70
2019-05-12T04:13:45.245Z,8.70
2019-05-12T04:16:16.420Z,8.60
2019-05-12T04:18:45.265Z,8.50
2019-05-12T04:26:16.748Z,8.50
2019-05-12T04:28:45.535Z,8.50
2019-05-12T04:31:15.459Z,8.50
2019-05-12T04:33:45.335Z,8.60
2019-05-12T04:36:14.975Z,8.50
2019-05-12T04:38:45.011Z,8.30
2019-05-12T04:41:14.706Z,8.30
2019-05-12T04:48:45.253Z,8.40
2019-05-12T04:51:15.420Z,8.40
2019-05-12T04:53:45.011Z,8.50
2019-05-12T04:56:19.309Z,8.30
2019-05-12T04:58:45.153Z,8.30
2019-05-12T05:01:15.515Z,8.30
2019-05-12T05:03:45.071Z,8.40
2019-05-12T05:08:44.350Z,8.50
2019-05-12T05:11:14.724Z,8.60
2019-05-12T05:13:44.376Z,8.70
2019-05-12T05:16:14.407Z,8.70
2019-05-12T05:18:43.966Z,8.70
2019-05-12T05:21:13.925Z,8.50
2019-05-12T05:23:44.285Z,8.60
2019-05-12T05:26:22.208Z,8.50
2019-05-12T05:31:14.052Z,8.40
2019-05-12T05:33:43.581Z,8.40
2019-05-12T05:36:15.096Z,8.40
2019-05-12T05:38:43.661Z,8.30
2019-05-12T05:41:13.430Z,8.30
2019-05-12T05:43:43.767Z,8.20
2019-05-12T05:46:13.835Z,8.20
2019-05-12T05:48:43.933Z,8.00
2019-05-12T05:53:44.237Z,8.00
2019-05-12T05:56:14.715Z,8.00
2019-05-12T05:58:49.608Z,8.60
2019-05-12T06:01:14.477Z,8.10
2019-05-12T06:03:44.162Z,8.10
2019-05-12T06:06:15.294Z,8.20
2019-05-12T06:08:46.732Z,8.20
2019-05-12T06:11:23.972Z,8.20
2019-05-12T06:16:20.796Z,8.30
2019-05-12T06:18:44.759Z,8.20
2019-05-12T06:21:13.848Z,8.20
2019-05-12T06:23:43.470Z,8.20
2019-05-12T06:26:14.058Z,8.20
2019-05-12T06:28:43.956Z,8.20
2019-05-12T06:31:13.769Z,8.30
2019-05-12T06:33:44.653Z,8.20
2019-05-12T06:38:43.536Z,8.20
2019-05-12T06:41:20.314Z,7.90
2019-05-12T06:43:45.314Z,7.90
2019-05-12T06:46:20.516Z,7.90
2019-05-12T06:48:45.532Z,8.00
2019-05-12T06:51:22.190Z,8.00
2019-05-12T06:53:44.859Z,8.10
2019-05-12T06:56:15.444Z,7.80
2019-05-12T07:01:19.112Z,7.90
2019-05-12T07:03:44.112Z,7.90
2019-05-12T07:06:17.935Z,8.00
2019-05-12T07:08:43.948Z,7.90
2019-05-12T07:11:14.358Z,7.90
2019-05-12T07:13:43.709Z,8.00
2019-05-12T07:16:22.996Z,8.10
2019-05-12T07:18:48.343Z,8.00
2019-05-12T07:23:47.346Z,8.00
2019-05-12T07:26:19.395Z,8.10
2019-05-12T07:28:46.554Z,8.00
2019-05-12T07:31:15.580Z,7.90
2019-05-12T07:33:45.948Z,7.90
2019-05-12T07:36:15.071Z,7.90
2019-05-12T07:38:44.144Z,7.80
2019-05-12T07:46:13.619Z,7.60
2019-05-12T07:48:49.044Z,7.60
2019-05-12T07:51:13.777Z,7.60
2019-05-12T07:53:46.920Z,7.30
2019-05-12T07:56:14.466Z,7.30
2019-05-12T07:58:47.450Z,7.20
2019-05-12T08:01:14.585Z,7.50
2019-05-12T08:08:50.336Z,7.40
2019-05-12T08:11:14.951Z,7.40
2019-05-12T08:13:44.073Z,7.40
2019-05-12T08:16:14.179Z,7.40
2019-05-12T08:18:44.422Z,7.50
2019-05-12T08:21:14.050Z,7.50
2019-05-12T08:23:44.509Z,7.50
2019-05-12T08:28:44.165Z,7.50
2019-05-12T08:31:14.046Z,7.30
2019-05-12T08:33:43.688Z,7.30
2019-05-12T08:36:16.078Z,7.20
2019-05-12T08:38:44.459Z,7.20
2019-05-12T08:41:14.549Z,7.50
2019-05-12T08:43:47.082Z,7.40
2019-05-12T08:46:15.612Z,7.30
2019-05-12T08:51:17.033Z,7.20
2019-05-12T08:53:44.295Z,7.20
2019-05-12T08:56:19.220Z,7.10
2019-05-12T08:58:48.104Z,7.20
2019-05-12T09:01:13.969Z,7.30
2019-05-12T09:03:44.264Z,7.40
2019-05-12T09:06:15.562Z,7.60
2019-05-12T09:08:49.064Z,7.70
2019-05-12T09:13:43.416Z,7.70
2019-05-12T09:16:13.819Z,7.70
2019-05-12T09:18:43.444Z,7.80
2019-05-12T09:21:14.105Z,7.80
2019-05-12T09:23:45.382Z,7.60
2019-05-12T09:26:13.596Z,7.50
2019-05-12T09:28:49.263Z,7.30
2019-05-12T09:31:14.152Z,7.10
2019-05-12T09:38:44.060Z,7.30
2019-05-12T09:41:13.982Z,7.40
2019-05-12T09:43:46.283Z,7.40
2019-05-12T09:46:14.421Z,7.60
2019-05-12T09:48:46.848Z,7.70
2019-05-12T09:51:16.925Z,7.50
2019-05-12T09:53:50.956Z,7.50
2019-05-12T09:56:15.176Z,7.20
2019-05-12T10:01:14.027Z,7.10
2019-05-12T10:03:43.739Z,7.20
2019-05-12T10:06:18.042Z,7.30
2019-05-12T10:08:43.580Z,7.30
2019-05-12T10:11:16.586Z,7.40
2019-05-12T10:13:44.922Z,7.40
2019-05-12T10:16:13.702Z,7.50
2019-05-12T10:18:51.033Z,7.60
2019-05-12T10:23:43.669Z,7.60
2019-05-12T10:26:14.785Z,7.50
2019-05-12T10:28:51.533Z,7.50
2019-05-12T10:31:13.899Z,7.50
2019-05-12T10:33:43.299Z,7.60
2019-05-12T10:36:12.173Z,7.70
2019-05-12T10:38:43.302Z,7.70
2019-05-12T10:46:13.236Z,7.80
2019-05-12T10:48:44.188Z,7.80
2019-05-12T10:51:12.649Z,7.80
2019-05-12T10:53:43.289Z,7.70
2019-05-12T10:56:12.227Z,7.40
2019-05-12T10:58:41.232Z,7.40
2019-05-12T11:01:09.924Z,7.50
2019-05-12T11:06:08.917Z,7.50
2019-05-12T11:08:41.260Z,7.70
2019-05-12T11:11:08.130Z,7.80
2019-05-12T11:13:40.354Z,7.80
2019-05-12T11:16:07.710Z,7.90
2019-05-12T11:18:36.428Z,8.00
2019-05-12T11:23:34.478Z,8.00
2019-05-12T11:26:03.924Z,8.10
2019-05-12T11:28:33.653Z,8.10
2019-05-12T11:31:02.596Z,8.10
2019-05-12T11:33:31.310Z,7.90
2019-05-12T11:36:00.039Z,7.80
2019-05-12T11:38:28.787Z,7.80
2019-05-12T11:40:57.576Z,7.40
2019-05-12T11:45:54.598Z,7.70
2019-05-12T11:48:23.762Z,7.80
2019-05-12T11:50:54.387Z,7.70
2019-05-12T11:53:30.437Z,7.70
2019-05-12T11:55:54.307Z,7.60
2019-05-12T11:58:23.602Z,7.60
2019-05-12T12:00:58.680Z,7.40
2019-05-12T12:05:53.896Z,7.50
2019-05-12T12:08:26.525Z,7.70
2019-05-12T12:10:54.095Z,7.70
2019-05-12T12:13:25.534Z,7.70
2019-05-12T12:15:53.415Z,7.80
2019-05-12T12:18:24.587Z,7.80
2019-05-12T12:20:55.085Z,7.90
2019-05-12T12:23:23.863Z,7.90
2019-05-12T12:28:24.177Z,7.90
2019-05-12T12:30:56.845Z,8.00
2019-05-12T12:33:23.544Z,7.90
2019-05-12T12:35:56.616Z,7.90
2019-05-12T12:38:22.842Z,8.00
2019-05-12T12:40:53.581Z,7.90
2019-05-12T12:43:22.171Z,8.00
2019-05-12T12:48:30.058Z,8.10
2019-05-12T12:50:58.877Z,8.20
2019-05-12T12:53:27.796Z,8.30
2019-05-12T12:55:58.527Z,8.30
2019-05-12T12:58:31.281Z,8.40
2019-05-12T13:00:58.066Z,8.40
2019-05-12T13:03:29.923Z,8.40
2019-05-12T13:05:57.302Z,8.40
2019-05-12T13:10:54.449Z,8.40
2019-05-12T13:13:24.499Z,8.50
2019-05-12T13:15:53.575Z,8.40
2019-05-12T13:18:28.050Z,8.40
2019-05-12T13:20:53.970Z,8.40
2019-05-12T13:23:34.749Z,8.50
2019-05-12T13:25:54.707Z,8.60
2019-05-12T13:28:25.881Z,8.60
2019-05-12T13:33:24.692Z,8.50
2019-05-12T13:35:55.711Z,8.60
2019-05-12T13:38:24.026Z,8.60
2019-05-12T13:40:53.999Z,8.50
2019-05-12T13:43:23.762Z,8.60
2019-05-12T13:45:53.435Z,8.70
2019-05-12T13:48:23.991Z,8.60
2019-05-12T13:50:53.880Z,8.60
2019-05-12T13:55:54.380Z,8.70
2019-05-12T13:58:28.079Z,8.90
2019-05-12T14:01:10.589Z,8.80
2019-05-12T14:03:27.644Z,8.80
2019-05-12T14:05:55.301Z,8.80
2019-05-12T14:08:24.169Z,8.80
2019-05-12T14:10:54.504Z,8.70
2019-05-12T14:13:24.540Z,8.70
2019-05-12T14:18:23.658Z,8.70
2019-05-12T14:20:58.913Z,8.60
2019-05-12T14:23:24.018Z,8.60
2019-05-12T14:25:54.311Z,8.70
2019-05-12T14:28:23.516Z,8.70
2019-05-12T14:30:54.420Z,8.70
2019-05-12T14:33:24.629Z,8.70
2019-05-12T14:35:53.861Z,8.10
2019-05-12T14:40:53.634Z,7.90
2019-05-12T14:43:24.047Z,7.90
2019-05-12T14:45:54.157Z,8.00
2019-05-12T14:48:23.109Z,8.00
2019-05-12T14:50:53.556Z,8.10
2019-05-12T14:53:23.757Z,8.20
2019-05-12T14:55:53.594Z,8.30
2019-05-12T14:58:23.775Z,8.40
2019-05-12T15:03:24.205Z,8.40
2019-05-12T15:05:54.535Z,8.50
2019-05-12T15:08:35.540Z,8.50
2019-05-12T15:10:53.962Z,8.40
2019-05-12T15:13:24.008Z,8.50
2019-05-12T15:15:57.978Z,8.40
2019-05-12T15:18:23.714Z,8.50
2019-05-12T15:20:54.461Z,8.50
2019-05-12T15:25:53.880Z,8.50
2019-05-12T15:28:23.638Z,8.60
2019-05-12T15:30:54.118Z,8.60
2019-05-12T15:33:24.287Z,8.60
2019-05-12T15:35:54.651Z,8.60
2019-05-12T15:38:24.032Z,8.60
2019-05-12T15:40:53.849Z,8.60
2019-05-12T15:43:24.453Z,8.40
2019-05-12T15:48:26.159Z,8.30
2019-05-12T15:50:59.383Z,8.50
2019-05-12T15:53:27.067Z,8.40
2019-05-12T15:55:55.503Z,8.40
2019-05-12T15:58:24.859Z,8.40
2019-05-12T16:00:54.441Z,8.40
2019-05-12T16:03:26.331Z,8.40
2019-05-12T16:05:54.543Z,8.50
2019-05-12T16:13:24.322Z,8.60
2019-05-12T16:15:57.716Z,8.60
2019-05-12T16:18:26.754Z,8.60
2019-05-12T16:20:58.991Z,8.50
2019-05-12T16:23:29.881Z,8.50
2019-05-12T16:26:01.419Z,8.60
2019-05-12T16:28:27.931Z,8.60
2019-05-12T16:30:58.918Z,8.50
2019-05-12T16:35:59.847Z,8.50
2019-05-12T16:38:26.137Z,8.40
2019-05-12T16:40:55.029Z,8.40
2019-05-12T16:43:24.035Z,8.40
2019-05-12T16:45:53.852Z,8.20
2019-05-12T16:48:30.423Z,8.20
2019-05-12T16:50:53.830Z,8.20
2019-05-12T16:58:24.448Z,8.30
2019-05-12T17:00:53.564Z,8.30
2019-05-12T17:03:23.879Z,8.30
2019-05-12T17:05:55.732Z,8.30
2019-05-12T17:08:24.034Z,8.30
2019-05-12T17:11:01.282Z,8.30
2019-05-12T17:13:23.725Z,8.20
2019-05-12T17:18:24.686Z,8.20
2019-05-12T17:20:54.604Z,8.30
2019-05-12T17:23:24.612Z,8.20
2019-05-12T17:25:53.566Z,8.30
2019-05-12T17:28:23.879Z,8.30
2019-05-12T17:30:54.326Z,8.30
2019-05-12T17:33:27.354Z,8.40
2019-05-12T17:35:54.229Z,8.30
2019-05-12T17:40:58.805Z,8.30
2019-05-12T17:43:23.739Z,8.30
2019-05-12T17:45:56.807Z,8.30
2019-05-12T17:48:23.553Z,8.30
2019-05-12T17:50:53.944Z,8.30
2019-05-12T17:53:24.019Z,8.30
2019-05-12T17:55:56.283Z,8.40
2019-05-12T17:58:29.872Z,8.40
2019-05-12T18:00:55.643Z,8.30
2019-05-12T18:05:54.698Z,8.30
2019-05-12T18:08:32.340Z,8.40
2019-05-12T18:10:54.595Z,8.40
2019-05-12T18:13:25.708Z,8.30
2019-05-12T18:15:54.192Z,8.50
2019-05-12T18:18:31.997Z,8.40
2019-05-12T18:20:55.633Z,8.40
2019-05-12T18:23:28.386Z,8.40
2019-05-12T18:28:27.541Z,8.40
2019-05-12T18:30:53.884Z,8.30
2019-05-12T18:33:33.558Z,8.40
2019-05-12T18:35:54.469Z,8.40
2019-05-12T18:38:26.454Z,8.40
2019-05-12T18:40:54.118Z,8.40
2019-05-12T18:43:24.323Z,8.30
2019-05-12T18:50:53.251Z,8.30
2019-05-12T18:53:31.531Z,8.30
2019-05-12T18:55:55.770Z,8.30
2019-05-12T18:58:30.683Z,8.30
2019-05-12T19:00:55.068Z,8.30
2019-05-12T19:03:25.599Z,8.30
2019-05-12T19:05:58.001Z,8.20
2019-05-12T19:08:25.398Z,8.20
2019-05-12T19:13:22.790Z,8.30
2019-05-12T19:15:52.699Z,8.30
2019-05-12T19:18:29.443Z,8.20
2019-05-12T19:20:54.224Z,8.30
2019-05-12T19:23:26.867Z,8.30
2019-05-12T19:25:54.245Z,8.00
2019-05-12T19:28:23.889Z,8.20
2019-05-12T19:30:54.676Z,8.10
2019-05-12T19:35:59.837Z,8.10
2019-05-12T19:38:23.949Z,8.10
2019-05-12T19:40:56.352Z,8.10
2019-05-12T19:43:23.870Z,8.00
2019-05-12T19:46:01.973Z,7.90
2019-05-12T19:48:27.341Z,8.00
2019-05-12T19:50:57.028Z,8.00
2019-05-12T19:58:23.618Z,7.90
2019-05-12T20:00:54.300Z,7.90
2019-05-12T20:03:24.191Z,7.80
2019-05-12T20:05:53.882Z,7.80
2019-05-12T20:08:22.991Z,7.90
2019-05-12T20:10:53.921Z,7.90
2019-05-12T20:13:24.094Z,7.80
2019-05-12T20:18:23.412Z,7.80
2019-05-12T20:20:54.097Z,7.80
2019-05-12T20:23:24.337Z,7.80
2019-05-12T20:25:53.503Z,7.80
2019-05-12T20:28:24.208Z,7.80
2019-05-12T20:31:01.047Z,7.80
2019-05-12T20:33:24.094Z,7.80
2019-05-12T20:35:54.718Z,7.70
2019-05-12T20:38:25.461Z,7.60
2019-05-12T20:43:24.056Z,7.60
2019-05-12T20:45:53.481Z,7.60
2019-05-12T20:48:26.627Z,7.70
2019-05-12T20:50:52.922Z,7.80
2019-05-12T20:53:24.706Z,7.70
2019-05-12T20:55:54.582Z,7.70
2019-05-12T20:58:26.603Z,7.80
2019-05-12T21:00:53.820Z,7.70
2019-05-12T21:05:58.163Z,7.70
2019-05-12T21:08:23.713Z,7.80
2019-05-12T21:10:54.156Z,7.80
2019-05-12T21:13:29.691Z,7.90
2019-05-12T21:15:54.085Z,7.90
2019-05-12T21:18:23.789Z,7.90
2019-05-12T21:20:54.703Z,8.00
2019-05-12T21:23:24.194Z,7.90
2019-05-12T21:28:23.815Z,7.90
2019-05-12T21:30:53.049Z,8.00
2019-05-12T21:33:24.049Z,7.90
2019-05-12T21:35:54.606Z,7.90
2019-05-12T21:38:27.503Z,7.90
2019-05-12T21:40:54.326Z,7.90
2019-05-12T21:43:23.323Z,8.00
2019-05-12T21:45:53.725Z,7.90
2019-05-12T21:50:55.652Z,7.90
2019-05-12T21:53:24.837Z,7.90
2019-05-12T21:56:03.354Z,8.00
2019-05-12T21:58:25.706Z,8.00
2019-05-12T22:01:05.092Z,8.00
2019-05-12T22:03:33.433Z,8.00
2019-05-12T22:06:11.959Z,8.00
2019-05-12T22:08:33.886Z,8.00
2019-05-12T22:13:33.524Z,8.10
2019-05-12T22:16:03.880Z,8.20
2019-05-12T22:18:33.446Z,8.10
2019-05-12T22:21:06.571Z,8.20
2019-05-12T22:23:33.849Z,8.10
2019-05-12T22:26:04.308Z,8.00
2019-05-12T22:28:34.270Z,8.20
2019-05-12T22:31:03.331Z,8.20
2019-05-12T22:36:08.836Z,8.20
2019-05-12T22:38:34.132Z,8.20
2019-05-12T22:41:10.349Z,8.20
2019-05-12T22:43:43.473Z,8.20
2019-05-12T22:46:16.562Z,8.20
2019-05-12T22:48:46.645Z,8.20
2019-05-12T22:51:23.564Z,8.20
2019-05-12T22:58:45.314Z,8.20
2019-05-12T23:01:14.530Z,8.30
2019-05-12T23:03:51.321Z,8.20
2019-05-12T23:06:23.685Z,8.20
2019-05-12T23:08:54.122Z,8.20
2019-05-12T23:11:32.223Z,8.10
2019-05-12T23:13:55.270Z,8.10
2019-05-12T23:16:29.426Z,8.10
2019-05-12T23:19:01.290Z,8.10
2019-05-12T23:24:00.609Z,8.10
2019-05-12T23:26:35.643Z,8.10
2019-05-12T23:29:04.394Z,8.10
2019-05-12T23:31:34.050Z,8.10
2019-05-12T23:34:06.296Z,8.10
2019-05-12T23:36:39.306Z,8.10
2019-05-12T23:39:08.840Z,8.10
2019-05-12T23:41:38.988Z,8.10
2019-05-12T23:46:38.150Z,8.00
2019-05-12T23:49:06.934Z,8.10
2019-05-12T23:51:35.983Z,8.10
2019-05-12T23:54:05.077Z,8.10
2019-05-12T23:56:34.339Z,8.20
2019-05-12T23:59:04.554Z,8.10
